sensor_id;sensor_type;location;lat;lon;timestamp;P1;durP1;ratioP1;P2;durP2;ratioP2
40150;SDS011;25866;52.420;10.640;2022-09-21T00:01:06;1.43;;;1.00;;
40150;SDS011;25866;52.420;10.640;2022-09-21T00:03:34;2.72;;;1.50;;
40150;SDS011;25866;52.420;10.640;2022-09-21T00:06:02;3.67;;;1.50;;
40150;SDS011;25866;52.420;10.640;2022-09-21T00:08:28;2.83;;;1.30;;
40150;SDS011;25866;52.420;10.640;2022-09-21T00:10:55;2.87;;;1.50;;
40150;SDS011;25866;52.420;10.640;2022-09-21T00:13:21;1.97;;;1.40;;
40150;SDS011;25866;52.420;10.640;2022-09-21T00:15:48;6.50;;;1.77;;
40150;SDS011;25866;52.420;10.640;2022-09-21T00:18:13;3.73;;;1.60;;
40150;SDS011;25866;52.420;10.640;2022-09-21T00:20:43;3.40;;;1.47;;
40150;SDS011;25866;52.420;10.640;2022-09-21T00:23:10;2.33;;;1.40;;
40150;SDS011;25866;52.420;10.640;2022-09-21T00:25:36;1.80;;;1.50;;
40150;SDS011;25866;52.420;10.640;2022-09-21T00:28:01;2.20;;;1.67;;
40150;SDS011;25866;52.420;10.640;2022-09-21T00:30:27;3.03;;;1.80;;
40150;SDS011;25866;52.420;10.640;2022-09-21T00:32:53;3.17;;;1.50;;
40150;SDS011;25866;52.420;10.640;2022-09-21T00:35:18;6.23;;;1.90;;
40150;SDS011;25866;52.420;10.640;2022-09-21T00:37:44;9.00;;;2.10;;
40150;SDS011;25866;52.420;10.640;2022-09-21T00:40:10;5.60;;;2.20;;
40150;SDS011;25866;52.420;10.640;2022-09-21T00:42:36;3.57;;;2.03;;
40150;SDS011;25866;52.420;10.640;2022-09-21T00:45:02;3.07;;;1.87;;
40150;SDS011;25866;52.420;10.640;2022-09-21T00:47:34;3.67;;;1.87;;
40150;SDS011;25866;52.420;10.640;2022-09-21T00:50:08;4.37;;;1.87;;
40150;SDS011;25866;52.420;10.640;2022-09-21T00:52:40;3.97;;;2.00;;
40150;SDS011;25866;52.420;10.640;2022-09-21T00:57:41;5.03;;;2.00;;
40150;SDS011;25866;52.420;10.640;2022-09-21T01:00:08;3.00;;;1.83;;
40150;SDS011;25866;52.420;10.640;2022-09-21T01:02:35;3.60;;;1.60;;
40150;SDS011;25866;52.420;10.640;2022-09-21T01:05:03;5.57;;;2.07;;
40150;SDS011;25866;52.420;10.640;2022-09-21T01:07:31;3.00;;;1.80;;
40150;SDS011;25866;52.420;10.640;2022-09-21T01:10:02;2.03;;;1.57;;
40150;SDS011;25866;52.420;10.640;2022-09-21T01:18:12;1.90;;;1.70;;
40150;SDS011;25866;52.420;10.640;2022-09-21T01:21:27;4.30;;;1.67;;
40150;SDS011;25866;52.420;10.640;2022-09-21T01:24:17;3.27;;;1.70;;
40150;SDS011;25866;52.420;10.640;2022-09-21T01:26:52;3.50;;;1.97;;
40150;SDS011;25866;52.420;10.640;2022-09-21T01:32:46;3.93;;;1.90;;
40150;SDS011;25866;52.420;10.640;2022-09-21T01:35:32;4.87;;;2.00;;
40150;SDS011;25866;52.420;10.640;2022-09-21T01:38:13;6.40;;;1.90;;
40150;SDS011;25866;52.420;10.640;2022-09-21T01:40:50;2.97;;;2.00;;
40150;SDS011;25866;52.420;10.640;2022-09-21T01:43:20;4.93;;;2.20;;
40150;SDS011;25866;52.420;10.640;2022-09-21T01:45:51;3.33;;;2.13;;
40150;SDS011;25866;52.420;10.640;2022-09-21T01:48:19;3.87;;;2.13;;
40150;SDS011;25866;52.420;10.640;2022-09-21T01:50:51;2.20;;;1.60;;
40150;SDS011;25866;52.420;10.640;2022-09-21T01:56:00;2.77;;;2.10;;
40150;SDS011;25866;52.420;10.640;2022-09-21T01:58:35;2.77;;;1.90;;
40150;SDS011;25866;52.420;10.640;2022-09-21T02:01:10;3.40;;;2.40;;
40150;SDS011;25866;52.420;10.640;2022-09-21T02:03:42;3.47;;;2.10;;
40150;SDS011;25866;52.420;10.640;2022-09-21T02:06:14;4.13;;;2.17;;
40150;SDS011;25866;52.420;10.640;2022-09-21T02:08:40;3.17;;;2.50;;
40150;SDS011;25866;52.420;10.640;2022-09-21T02:11:10;8.00;;;2.90;;
40150;SDS011;25866;52.420;10.640;2022-09-21T02:13:39;5.70;;;2.70;;
40150;SDS011;25866;52.420;10.640;2022-09-21T02:16:14;2.93;;;2.60;;
40150;SDS011;25866;52.420;10.640;2022-09-21T02:21:39;5.87;;;2.93;;
40150;SDS011;25866;52.420;10.640;2022-09-21T02:24:27;5.20;;;2.90;;
40150;SDS011;25866;52.420;10.640;2022-09-21T02:27:42;3.30;;;2.50;;
40150;SDS011;25866;52.420;10.640;2022-09-21T02:30:21;5.37;;;2.87;;
40150;SDS011;25866;52.420;10.640;2022-09-21T02:35:51;4.07;;;2.73;;
40150;SDS011;25866;52.420;10.640;2022-09-21T02:38:48;7.17;;;3.10;;
40150;SDS011;25866;52.420;10.640;2022-09-21T02:42:00;4.43;;;3.40;;
40150;SDS011;25866;52.420;10.640;2022-09-21T02:44:21;5.17;;;3.80;;
40150;SDS011;25866;52.420;10.640;2022-09-21T02:47:03;4.43;;;3.50;;
40150;SDS011;25866;52.420;10.640;2022-09-21T02:49:40;4.53;;;3.33;;
40150;SDS011;25866;52.420;10.640;2022-09-21T02:52:11;4.70;;;3.80;;
40150;SDS011;25866;52.420;10.640;2022-09-21T02:54:40;5.27;;;3.93;;
40150;SDS011;25866;52.420;10.640;2022-09-21T02:57:11;5.23;;;3.90;;
40150;SDS011;25866;52.420;10.640;2022-09-21T02:59:40;5.90;;;3.73;;
40150;SDS011;25866;52.420;10.640;2022-09-21T03:02:06;4.60;;;3.80;;
40150;SDS011;25866;52.420;10.640;2022-09-21T03:04:34;4.20;;;2.93;;
40150;SDS011;25866;52.420;10.640;2022-09-21T03:07:00;4.60;;;3.40;;
40150;SDS011;25866;52.420;10.640;2022-09-21T03:09:26;6.17;;;3.50;;
40150;SDS011;25866;52.420;10.640;2022-09-21T03:11:53;4.23;;;3.20;;
40150;SDS011;25866;52.420;10.640;2022-09-21T03:14:18;4.10;;;3.10;;
40150;SDS011;25866;52.420;10.640;2022-09-21T03:16:44;3.60;;;2.80;;
40150;SDS011;25866;52.420;10.640;2022-09-21T03:19:10;6.67;;;3.53;;
40150;SDS011;25866;52.420;10.640;2022-09-21T03:21:36;3.90;;;3.50;;
40150;SDS011;25866;52.420;10.640;2022-09-21T03:24:02;4.63;;;3.87;;
40150;SDS011;25866;52.420;10.640;2022-09-21T03:26:28;5.83;;;3.23;;
40150;SDS011;25866;52.420;10.640;2022-09-21T03:28:54;5.40;;;3.40;;
40150;SDS011;25866;52.420;10.640;2022-09-21T03:31:19;4.97;;;4.00;;
40150;SDS011;25866;52.420;10.640;2022-09-21T03:33:46;5.80;;;4.50;;
40150;SDS011;25866;52.420;10.640;2022-09-21T03:36:12;7.40;;;4.80;;
40150;SDS011;25866;52.420;10.640;2022-09-21T03:38:37;4.60;;;4.03;;
40150;SDS011;25866;52.420;10.640;2022-09-21T03:41:03;6.93;;;4.33;;
40150;SDS011;25866;52.420;10.640;2022-09-21T03:43:30;8.60;;;4.53;;
40150;SDS011;25866;52.420;10.640;2022-09-21T03:45:57;6.30;;;4.87;;
40150;SDS011;25866;52.420;10.640;2022-09-21T03:48:23;7.53;;;4.93;;
40150;SDS011;25866;52.420;10.640;2022-09-21T03:50:49;7.77;;;4.90;;
40150;SDS011;25866;52.420;10.640;2022-09-21T03:53:15;6.87;;;4.97;;
40150;SDS011;25866;52.420;10.640;2022-09-21T03:55:41;6.30;;;4.50;;
40150;SDS011;25866;52.420;10.640;2022-09-21T03:58:07;6.13;;;4.00;;
40150;SDS011;25866;52.420;10.640;2022-09-21T04:00:33;5.17;;;3.90;;
40150;SDS011;25866;52.420;10.640;2022-09-21T04:03:05;6.27;;;4.20;;
40150;SDS011;25866;52.420;10.640;2022-09-21T04:05:31;7.63;;;4.30;;
40150;SDS011;25866;52.420;10.640;2022-09-21T04:07:56;6.03;;;4.47;;
40150;SDS011;25866;52.420;10.640;2022-09-21T04:10:23;7.33;;;5.40;;
40150;SDS011;25866;52.420;10.640;2022-09-21T04:15:51;4.93;;;4.00;;
40150;SDS011;25866;52.420;10.640;2022-09-21T04:18:17;8.83;;;4.90;;
40150;SDS011;25866;52.420;10.640;2022-09-21T04:20:42;6.93;;;4.87;;
40150;SDS011;25866;52.420;10.640;2022-09-21T04:23:16;7.63;;;4.80;;
40150;SDS011;25866;52.420;10.640;2022-09-21T04:25:42;7.10;;;4.97;;
40150;SDS011;25866;52.420;10.640;2022-09-21T04:28:11;7.67;;;4.53;;
40150;SDS011;25866;52.420;10.640;2022-09-21T04:30:36;7.27;;;4.60;;
40150;SDS011;25866;52.420;10.640;2022-09-21T04:33:02;7.00;;;4.53;;
40150;SDS011;25866;52.420;10.640;2022-09-21T04:35:28;5.70;;;4.83;;
40150;SDS011;25866;52.420;10.640;2022-09-21T04:37:54;5.90;;;4.67;;
40150;SDS011;25866;52.420;10.640;2022-09-21T04:40:20;6.63;;;5.33;;
40150;SDS011;25866;52.420;10.640;2022-09-21T04:42:54;6.87;;;4.80;;
40150;SDS011;25866;52.420;10.640;2022-09-21T04:45:21;10.47;;;4.90;;
40150;SDS011;25866;52.420;10.640;2022-09-21T04:47:47;6.20;;;4.57;;
40150;SDS011;25866;52.420;10.640;2022-09-21T04:50:13;5.67;;;4.17;;
40150;SDS011;25866;52.420;10.640;2022-09-21T04:52:39;6.87;;;4.63;;
40150;SDS011;25866;52.420;10.640;2022-09-21T04:55:06;7.67;;;5.03;;
40150;SDS011;25866;52.420;10.640;2022-09-21T04:57:32;7.33;;;5.00;;
40150;SDS011;25866;52.420;10.640;2022-09-21T04:59:59;6.97;;;5.30;;
40150;SDS011;25866;52.420;10.640;2022-09-21T05:02:26;7.83;;;5.07;;
40150;SDS011;25866;52.420;10.640;2022-09-21T05:04:51;6.33;;;4.77;;
40150;SDS011;25866;52.420;10.640;2022-09-21T05:07:17;5.47;;;4.23;;
40150;SDS011;25866;52.420;10.640;2022-09-21T05:09:43;16.73;;;4.70;;
40150;SDS011;25866;52.420;10.640;2022-09-21T05:12:27;5.23;;;4.20;;
40150;SDS011;25866;52.420;10.640;2022-09-21T05:14:52;7.03;;;4.90;;
40150;SDS011;25866;52.420;10.640;2022-09-21T05:17:20;5.03;;;4.53;;
40150;SDS011;25866;52.420;10.640;2022-09-21T05:19:47;4.97;;;4.13;;
40150;SDS011;25866;52.420;10.640;2022-09-21T05:22:13;5.70;;;4.60;;
40150;SDS011;25866;52.420;10.640;2022-09-21T05:24:39;6.30;;;4.60;;
40150;SDS011;25866;52.420;10.640;2022-09-21T05:27:05;5.47;;;4.63;;
40150;SDS011;25866;52.420;10.640;2022-09-21T05:29:30;5.77;;;4.53;;
40150;SDS011;25866;52.420;10.640;2022-09-21T05:35:05;11.43;;;4.77;;
40150;SDS011;25866;52.420;10.640;2022-09-21T05:38:00;6.33;;;4.20;;
40150;SDS011;25866;52.420;10.640;2022-09-21T05:40:40;8.97;;;4.30;;
40150;SDS011;25866;52.420;10.640;2022-09-21T05:43:07;9.77;;;4.20;;
40150;SDS011;25866;52.420;10.640;2022-09-21T05:45:33;4.37;;;3.87;;
40150;SDS011;25866;52.420;10.640;2022-09-21T05:48:14;4.50;;;3.97;;
40150;SDS011;25866;52.420;10.640;2022-09-21T05:59:05;9.87;;;4.20;;
40150;SDS011;25866;52.420;10.640;2022-09-21T06:04:15;14.80;;;4.60;;
40150;SDS011;25866;52.420;10.640;2022-09-21T06:06:41;11.93;;;4.57;;
40150;SDS011;25866;52.420;10.640;2022-09-21T06:09:06;6.57;;;4.60;;
40150;SDS011;25866;52.420;10.640;2022-09-21T06:11:32;5.70;;;4.47;;
40150;SDS011;25866;52.420;10.640;2022-09-21T06:13:59;5.60;;;4.80;;
40150;SDS011;25866;52.420;10.640;2022-09-21T06:16:26;6.97;;;4.80;;
40150;SDS011;25866;52.420;10.640;2022-09-21T06:19:00;5.20;;;4.50;;
40150;SDS011;25866;52.420;10.640;2022-09-21T06:21:25;7.90;;;4.73;;
40150;SDS011;25866;52.420;10.640;2022-09-21T06:23:51;6.13;;;4.63;;
40150;SDS011;25866;52.420;10.640;2022-09-21T06:26:17;10.90;;;4.90;;
40150;SDS011;25866;52.420;10.640;2022-09-21T06:28:42;6.00;;;5.23;;
40150;SDS011;25866;52.420;10.640;2022-09-21T06:31:08;11.47;;;5.63;;
40150;SDS011;25866;52.420;10.640;2022-09-21T06:33:34;10.20;;;5.60;;
40150;SDS011;25866;52.420;10.640;2022-09-21T06:36:01;9.63;;;5.57;;
40150;SDS011;25866;52.420;10.640;2022-09-21T06:38:27;7.23;;;5.90;;
40150;SDS011;25866;52.420;10.640;2022-09-21T06:40:53;7.47;;;5.93;;
40150;SDS011;25866;52.420;10.640;2022-09-21T06:43:20;7.47;;;6.50;;
40150;SDS011;25866;52.420;10.640;2022-09-21T06:45:52;12.57;;;7.50;;
40150;SDS011;25866;52.420;10.640;2022-09-21T06:48:19;8.53;;;6.43;;
40150;SDS011;25866;52.420;10.640;2022-09-21T06:50:45;9.57;;;7.20;;
40150;SDS011;25866;52.420;10.640;2022-09-21T06:53:11;9.33;;;7.00;;
40150;SDS011;25866;52.420;10.640;2022-09-21T06:55:38;9.70;;;7.25;;
40150;SDS011;25866;52.420;10.640;2022-09-21T06:58:03;11.17;;;7.40;;
40150;SDS011;25866;52.420;10.640;2022-09-21T07:00:30;9.10;;;6.97;;
40150;SDS011;25866;52.420;10.640;2022-09-21T07:02:56;13.80;;;8.20;;
40150;SDS011;25866;52.420;10.640;2022-09-21T07:05:22;11.17;;;8.50;;
40150;SDS011;25866;52.420;10.640;2022-09-21T07:07:48;14.52;;;8.65;;
40150;SDS011;25866;52.420;10.640;2022-09-21T07:10:13;10.98;;;8.00;;
40150;SDS011;25866;52.420;10.640;2022-09-21T07:12:39;10.63;;;7.77;;
40150;SDS011;25866;52.420;10.640;2022-09-21T07:15:05;11.33;;;8.60;;
40150;SDS011;25866;52.420;10.640;2022-09-21T07:17:32;11.10;;;8.20;;
40150;SDS011;25866;52.420;10.640;2022-09-21T07:20:00;11.68;;;8.40;;
40150;SDS011;25866;52.420;10.640;2022-09-21T07:22:32;14.15;;;8.65;;
40150;SDS011;25866;52.420;10.640;2022-09-21T07:24:58;11.07;;;8.13;;
40150;SDS011;25866;52.420;10.640;2022-09-21T07:27:25;13.38;;;8.90;;
40150;SDS011;25866;52.420;10.640;2022-09-21T07:29:52;15.18;;;8.43;;
40150;SDS011;25866;52.420;10.640;2022-09-21T07:32:18;10.88;;;8.10;;
40150;SDS011;25866;52.420;10.640;2022-09-21T07:34:44;12.65;;;7.93;;
40150;SDS011;25866;52.420;10.640;2022-09-21T07:37:10;12.55;;;7.90;;
40150;SDS011;25866;52.420;10.640;2022-09-21T07:39:37;11.43;;;7.38;;
40150;SDS011;25866;52.420;10.640;2022-09-21T07:42:03;11.67;;;7.77;;
40150;SDS011;25866;52.420;10.640;2022-09-21T07:44:29;17.38;;;8.10;;
40150;SDS011;25866;52.420;10.640;2022-09-21T07:46:55;15.05;;;7.70;;
40150;SDS011;25866;52.420;10.640;2022-09-21T07:49:21;12.10;;;7.00;;
40150;SDS011;25866;52.420;10.640;2022-09-21T07:51:47;11.23;;;7.10;;
40150;SDS011;25866;52.420;10.640;2022-09-21T07:54:13;10.43;;;7.20;;
40150;SDS011;25866;52.420;10.640;2022-09-21T07:56:39;13.93;;;7.38;;
40150;SDS011;25866;52.420;10.640;2022-09-21T07:59:06;12.10;;;6.85;;
40150;SDS011;25866;52.420;10.640;2022-09-21T08:01:39;11.65;;;8.50;;
40150;SDS011;25866;52.420;10.640;2022-09-21T08:04:09;11.45;;;8.00;;
40150;SDS011;25866;52.420;10.640;2022-09-21T08:06:35;9.85;;;8.65;;
40150;SDS011;25866;52.420;10.640;2022-09-21T08:09:04;17.42;;;9.48;;
40150;SDS011;25866;52.420;10.640;2022-09-21T08:11:31;15.88;;;9.70;;
40150;SDS011;25866;52.420;10.640;2022-09-21T08:14:00;15.48;;;8.27;;
40150;SDS011;25866;52.420;10.640;2022-09-21T08:16:27;16.90;;;8.55;;
40150;SDS011;25866;52.420;10.640;2022-09-21T08:18:54;12.77;;;8.95;;
40150;SDS011;25866;52.420;10.640;2022-09-21T08:21:20;12.70;;;8.13;;
40150;SDS011;25866;52.420;10.640;2022-09-21T08:23:46;13.73;;;7.43;;
40150;SDS011;25866;52.420;10.640;2022-09-21T08:26:14;13.70;;;8.10;;
40150;SDS011;25866;52.420;10.640;2022-09-21T08:28:47;13.48;;;8.43;;
40150;SDS011;25866;52.420;10.640;2022-09-21T08:31:16;13.63;;;7.53;;
40150;SDS011;25866;52.420;10.640;2022-09-21T08:33:44;11.73;;;8.13;;
40150;SDS011;25866;52.420;10.640;2022-09-21T08:36:10;11.05;;;7.18;;
40150;SDS011;25866;52.420;10.640;2022-09-21T08:38:36;12.75;;;6.10;;
40150;SDS011;25866;52.420;10.640;2022-09-21T08:43:42;10.43;;;6.72;;
40150;SDS011;25866;52.420;10.640;2022-09-21T08:46:16;11.68;;;7.57;;
40150;SDS011;25866;52.420;10.640;2022-09-21T08:48:55;10.32;;;6.93;;
40150;SDS011;25866;52.420;10.640;2022-09-21T08:51:32;13.85;;;7.63;;
40150;SDS011;25866;52.420;10.640;2022-09-21T08:54:03;12.35;;;6.93;;
40150;SDS011;25866;52.420;10.640;2022-09-21T08:56:36;17.45;;;7.45;;
40150;SDS011;25866;52.420;10.640;2022-09-21T08:59:02;13.15;;;7.90;;
40150;SDS011;25866;52.420;10.640;2022-09-21T09:01:39;17.48;;;7.53;;
40150;SDS011;25866;52.420;10.640;2022-09-21T09:04:20;6.70;;;5.90;;
40150;SDS011;25866;52.420;10.640;2022-09-21T09:18:33;9.05;;;5.70;;
40150;SDS011;25866;52.420;10.640;2022-09-21T09:21:19;12.73;;;6.05;;
40150;SDS011;25866;52.420;10.640;2022-09-21T09:26:54;8.77;;;4.38;;
40150;SDS011;25866;52.420;10.640;2022-09-21T09:32:38;8.00;;;4.07;;
40150;SDS011;25866;52.420;10.640;2022-09-21T09:37:57;9.48;;;4.50;;
40150;SDS011;25866;52.420;10.640;2022-09-21T09:52:23;4.95;;;2.75;;
40150;SDS011;25866;52.420;10.640;2022-09-21T09:54:51;5.60;;;2.15;;
40150;SDS011;25866;52.420;10.640;2022-09-21T09:57:19;7.53;;;1.98;;
40150;SDS011;25866;52.420;10.640;2022-09-21T09:59:54;5.72;;;2.08;;
40150;SDS011;25866;52.420;10.640;2022-09-21T10:02:26;4.15;;;2.22;;
40150;SDS011;25866;52.420;10.640;2022-09-21T10:04:57;3.25;;;1.80;;
40150;SDS011;25866;52.420;10.640;2022-09-21T10:12:53;8.88;;;1.40;;
40150;SDS011;25866;52.420;10.640;2022-09-21T10:15:20;3.20;;;1.50;;
40150;SDS011;25866;52.420;10.640;2022-09-21T10:17:56;3.63;;;1.67;;
40150;SDS011;25866;52.420;10.640;2022-09-21T10:21:02;5.53;;;1.90;;
40150;SDS011;25866;52.420;10.640;2022-09-21T10:23:30;4.68;;;2.28;;
40150;SDS011;25866;52.420;10.640;2022-09-21T10:26:07;3.90;;;2.10;;
40150;SDS011;25866;52.420;10.640;2022-09-21T10:28:37;5.82;;;2.15;;
40150;SDS011;25866;52.420;10.640;2022-09-21T10:31:25;4.70;;;1.55;;
40150;SDS011;25866;52.420;10.640;2022-09-21T10:36:29;2.40;;;1.33;;
40150;SDS011;25866;52.420;10.640;2022-09-21T10:39:10;5.82;;;1.13;;
40150;SDS011;25866;52.420;10.640;2022-09-21T10:41:41;2.92;;;1.00;;
40150;SDS011;25866;52.420;10.640;2022-09-21T10:44:17;3.22;;;0.98;;
40150;SDS011;25866;52.420;10.640;2022-09-21T10:46:45;5.05;;;1.25;;
40150;SDS011;25866;52.420;10.640;2022-09-21T10:49:20;4.07;;;1.20;;
40150;SDS011;25866;52.420;10.640;2022-09-21T10:51:53;2.42;;;0.90;;
40150;SDS011;25866;52.420;10.640;2022-09-21T10:54:23;2.72;;;0.75;;
40150;SDS011;25866;52.420;10.640;2022-09-21T10:59:29;4.93;;;1.23;;
40150;SDS011;25866;52.420;10.640;2022-09-21T11:01:57;4.05;;;1.10;;
40150;SDS011;25866;52.420;10.640;2022-09-21T11:04:45;5.95;;;1.13;;
40150;SDS011;25866;52.420;10.640;2022-09-21T11:10:15;4.30;;;0.80;;
40150;SDS011;25866;52.420;10.640;2022-09-21T11:18:21;4.30;;;0.70;;
40150;SDS011;25866;52.420;10.640;2022-09-21T11:20:54;3.85;;;1.17;;
40150;SDS011;25866;52.420;10.640;2022-09-21T11:34:37;2.80;;;1.15;;
40150;SDS011;25866;52.420;10.640;2022-09-21T11:37:17;2.08;;;1.00;;
40150;SDS011;25866;52.420;10.640;2022-09-21T11:46:26;4.30;;;1.05;;
40150;SDS011;25866;52.420;10.640;2022-09-21T11:57:32;4.80;;;0.80;;
40150;SDS011;25866;52.420;10.640;2022-09-21T12:08:26;3.25;;;0.90;;
40150;SDS011;25866;52.420;10.640;2022-09-21T12:11:36;2.60;;;0.98;;
40150;SDS011;25866;52.420;10.640;2022-09-21T12:20:02;1.13;;;0.40;;
40150;SDS011;25866;52.420;10.640;2022-09-21T12:22:43;4.13;;;0.80;;
40150;SDS011;25866;52.420;10.640;2022-09-21T12:25:16;1.83;;;0.68;;
40150;SDS011;25866;52.420;10.640;2022-09-21T12:27:51;2.00;;;0.45;;
40150;SDS011;25866;52.420;10.640;2022-09-21T12:30:22;1.60;;;0.55;;
40150;SDS011;25866;52.420;10.640;2022-09-21T12:32:59;4.47;;;0.60;;
40150;SDS011;25866;52.420;10.640;2022-09-21T12:35:34;3.08;;;0.75;;
40150;SDS011;25866;52.420;10.640;2022-09-21T12:41:21;3.40;;;0.90;;
40150;SDS011;25866;52.420;10.640;2022-09-21T12:44:03;5.25;;;0.68;;
40150;SDS011;25866;52.420;10.640;2022-09-21T12:50:15;1.88;;;0.55;;
40150;SDS011;25866;52.420;10.640;2022-09-21T12:52:53;4.35;;;0.77;;
40150;SDS011;25866;52.420;10.640;2022-09-21T12:55:38;7.00;;;0.80;;
40150;SDS011;25866;52.420;10.640;2022-09-21T13:09:54;1.95;;;0.50;;
40150;SDS011;25866;52.420;10.640;2022-09-21T13:12:25;1.25;;;0.52;;
40150;SDS011;25866;52.420;10.640;2022-09-21T13:15:11;0.93;;;0.32;;
40150;SDS011;25866;52.420;10.640;2022-09-21T13:20:34;1.70;;;0.50;;
40150;SDS011;25866;52.420;10.640;2022-09-21T13:23:03;0.55;;;0.40;;
40150;SDS011;25866;52.420;10.640;2022-09-21T13:25:30;3.22;;;0.50;;
40150;SDS011;25866;52.420;10.640;2022-09-21T13:30:39;3.35;;;0.60;;
40150;SDS011;25866;52.420;10.640;2022-09-21T13:35:52;7.32;;;0.68;;
40150;SDS011;25866;52.420;10.640;2022-09-21T13:49:04;1.35;;;0.40;;
40150;SDS011;25866;52.420;10.640;2022-09-21T13:54:20;0.95;;;0.55;;
40150;SDS011;25866;52.420;10.640;2022-09-21T14:00:05;1.30;;;0.50;;
40150;SDS011;25866;52.420;10.640;2022-09-21T14:05:23;1.13;;;0.60;;
40150;SDS011;25866;52.420;10.640;2022-09-21T14:08:05;3.22;;;0.50;;
40150;SDS011;25866;52.420;10.640;2022-09-21T14:10:39;1.92;;;0.57;;
40150;SDS011;25866;52.420;10.640;2022-09-21T14:13:28;1.60;;;0.52;;
40150;SDS011;25866;52.420;10.640;2022-09-21T14:24:43;1.10;;;0.40;;
40150;SDS011;25866;52.420;10.640;2022-09-21T14:27:43;2.60;;;0.60;;
40150;SDS011;25866;52.420;10.640;2022-09-21T14:30:16;1.92;;;0.63;;
40150;SDS011;25866;52.420;10.640;2022-09-21T14:32:51;2.35;;;0.60;;
40150;SDS011;25866;52.420;10.640;2022-09-21T14:35:25;0.43;;;0.30;;
40150;SDS011;25866;52.420;10.640;2022-09-21T14:40:35;1.10;;;0.40;;
40150;SDS011;25866;52.420;10.640;2022-09-21T14:43:07;1.40;;;0.50;;
40150;SDS011;25866;52.420;10.640;2022-09-21T14:45:51;2.70;;;0.40;;
40150;SDS011;25866;52.420;10.640;2022-09-21T14:51:18;2.65;;;0.77;;
40150;SDS011;25866;52.420;10.640;2022-09-21T15:02:38;2.85;;;0.50;;
40150;SDS011;25866;52.420;10.640;2022-09-21T15:07:47;2.72;;;0.60;;
40150;SDS011;25866;52.420;10.640;2022-09-21T15:11:00;1.38;;;0.50;;
40150;SDS011;25866;52.420;10.640;2022-09-21T15:13:43;2.17;;;0.57;;
40150;SDS011;25866;52.420;10.640;2022-09-21T15:16:16;3.00;;;0.70;;
40150;SDS011;25866;52.420;10.640;2022-09-21T15:19:10;4.95;;;0.52;;
40150;SDS011;25866;52.420;10.640;2022-09-21T15:21:43;4.57;;;0.95;;
40150;SDS011;25866;52.420;10.640;2022-09-21T15:24:20;1.45;;;0.60;;
40150;SDS011;25866;52.420;10.640;2022-09-21T15:32:01;2.92;;;0.77;;
40150;SDS011;25866;52.420;10.640;2022-09-21T15:34:29;2.65;;;0.60;;
40150;SDS011;25866;52.420;10.640;2022-09-21T15:37:04;1.15;;;0.40;;
40150;SDS011;25866;52.420;10.640;2022-09-21T15:44:41;2.55;;;0.60;;
40150;SDS011;25866;52.420;10.640;2022-09-21T15:47:12;1.55;;;0.50;;
40150;SDS011;25866;52.420;10.640;2022-09-21T15:49:40;2.45;;;0.60;;
40150;SDS011;25866;52.420;10.640;2022-09-21T15:52:12;2.97;;;0.40;;
40150;SDS011;25866;52.420;10.640;2022-09-21T15:54:49;1.83;;;0.50;;
40150;SDS011;25866;52.420;10.640;2022-09-21T15:57:21;1.70;;;0.57;;
40150;SDS011;25866;52.420;10.640;2022-09-21T16:02:55;2.17;;;0.52;;
40150;SDS011;25866;52.420;10.640;2022-09-21T16:08:27;0.68;;;0.50;;
40150;SDS011;25866;52.420;10.640;2022-09-21T16:11:14;1.10;;;0.45;;
40150;SDS011;25866;52.420;10.640;2022-09-21T16:14:11;2.97;;;0.90;;
40150;SDS011;25866;52.420;10.640;2022-09-21T16:25:21;2.38;;;0.60;;
40150;SDS011;25866;52.420;10.640;2022-09-21T16:27:55;3.15;;;0.70;;
40150;SDS011;25866;52.420;10.640;2022-09-21T16:30:50;2.38;;;0.60;;
40150;SDS011;25866;52.420;10.640;2022-09-21T16:33:41;1.80;;;0.50;;
40150;SDS011;25866;52.420;10.640;2022-09-21T16:41:23;0.95;;;0.43;;
40150;SDS011;25866;52.420;10.640;2022-09-21T16:44:11;1.90;;;0.80;;
40150;SDS011;25866;52.420;10.640;2022-09-21T16:46:46;0.77;;;0.55;;
40150;SDS011;25866;52.420;10.640;2022-09-21T16:49:14;3.85;;;0.90;;
40150;SDS011;25866;52.420;10.640;2022-09-21T16:51:44;2.72;;;0.60;;
40150;SDS011;25866;52.420;10.640;2022-09-21T16:54:14;2.45;;;0.77;;
40150;SDS011;25866;52.420;10.640;2022-09-21T16:56:40;1.58;;;0.55;;
40150;SDS011;25866;52.420;10.640;2022-09-21T16:59:15;1.33;;;0.50;;
40150;SDS011;25866;52.420;10.640;2022-09-21T17:01:47;0.65;;;0.40;;
40150;SDS011;25866;52.420;10.640;2022-09-21T17:04:20;1.00;;;0.50;;
40150;SDS011;25866;52.420;10.640;2022-09-21T17:06:48;1.33;;;0.60;;
40150;SDS011;25866;52.420;10.640;2022-09-21T17:09:19;1.15;;;0.50;;
40150;SDS011;25866;52.420;10.640;2022-09-21T17:11:47;3.58;;;0.90;;
40150;SDS011;25866;52.420;10.640;2022-09-21T17:14:15;2.75;;;0.60;;
40150;SDS011;25866;52.420;10.640;2022-09-21T17:16:49;1.77;;;0.55;;
40150;SDS011;25866;52.420;10.640;2022-09-21T17:19:25;2.78;;;0.40;;
40150;SDS011;25866;52.420;10.640;2022-09-21T17:21:51;2.08;;;0.50;;
40150;SDS011;25866;52.420;10.640;2022-09-21T17:24:17;1.75;;;0.77;;
40150;SDS011;25866;52.420;10.640;2022-09-21T17:26:42;2.05;;;0.70;;
40150;SDS011;25866;52.420;10.640;2022-09-21T17:29:19;3.13;;;0.60;;
40150;SDS011;25866;52.420;10.640;2022-09-21T17:31:48;2.20;;;0.70;;
40150;SDS011;25866;52.420;10.640;2022-09-21T17:34:17;1.90;;;0.60;;
40150;SDS011;25866;52.420;10.640;2022-09-21T17:36:44;3.55;;;0.70;;
40150;SDS011;25866;52.420;10.640;2022-09-21T17:39:16;4.00;;;0.63;;
40150;SDS011;25866;52.420;10.640;2022-09-21T17:41:45;2.17;;;0.68;;
40150;SDS011;25866;52.420;10.640;2022-09-21T17:47:18;4.18;;;0.68;;
40150;SDS011;25866;52.420;10.640;2022-09-21T17:49:47;1.52;;;0.70;;
40150;SDS011;25866;52.420;10.640;2022-09-21T17:52:14;1.25;;;0.77;;
40150;SDS011;25866;52.420;10.640;2022-09-21T17:55:01;1.58;;;0.80;;
40150;SDS011;25866;52.420;10.640;2022-09-21T18:00:20;2.50;;;0.88;;
40150;SDS011;25866;52.420;10.640;2022-09-21T18:02:49;2.45;;;0.88;;
40150;SDS011;25866;52.420;10.640;2022-09-21T18:05:22;2.42;;;0.98;;
40150;SDS011;25866;52.420;10.640;2022-09-21T18:07:51;1.67;;;0.82;;
40150;SDS011;25866;52.420;10.640;2022-09-21T18:10:18;3.72;;;0.90;;
40150;SDS011;25866;52.420;10.640;2022-09-21T18:12:52;2.15;;;0.60;;
40150;SDS011;25866;52.420;10.640;2022-09-21T18:18:43;3.65;;;1.10;;
40150;SDS011;25866;52.420;10.640;2022-09-21T18:21:24;1.30;;;0.70;;
40150;SDS011;25866;52.420;10.640;2022-09-21T18:26:34;2.80;;;0.98;;
40150;SDS011;25866;52.420;10.640;2022-09-21T18:29:03;1.92;;;0.80;;
40150;SDS011;25866;52.420;10.640;2022-09-21T18:40:14;3.70;;;1.15;;
40150;SDS011;25866;52.420;10.640;2022-09-21T18:42:45;1.52;;;0.70;;
40150;SDS011;25866;52.420;10.640;2022-09-21T18:45:21;3.88;;;0.80;;
40150;SDS011;25866;52.420;10.640;2022-09-21T18:53:28;2.97;;;0.98;;
40150;SDS011;25866;52.420;10.640;2022-09-21T18:56:02;3.55;;;0.88;;
40150;SDS011;25866;52.420;10.640;2022-09-21T18:58:28;1.77;;;0.93;;
40150;SDS011;25866;52.420;10.640;2022-09-21T19:00:54;1.70;;;1.08;;
40150;SDS011;25866;52.420;10.640;2022-09-21T19:03:21;1.40;;;0.82;;
40150;SDS011;25866;52.420;10.640;2022-09-21T19:10:53;2.05;;;0.90;;
40150;SDS011;25866;52.420;10.640;2022-09-21T19:13:35;2.63;;;1.05;;
40150;SDS011;25866;52.420;10.640;2022-09-21T19:16:22;2.30;;;1.15;;
40150;SDS011;25866;52.420;10.640;2022-09-21T19:19:24;2.72;;;1.00;;
40150;SDS011;25866;52.420;10.640;2022-09-21T19:30:12;5.45;;;1.00;;
40150;SDS011;25866;52.420;10.640;2022-09-21T19:35:23;3.85;;;1.10;;